»·PEaware :: N454FT KEAT-KGEG

N454FT :: KEAT-KGEG

FLIGHT INFORMATION

Flight Status: Arrived
Operator: Privately registered:
United States
More flights under this callsign
Pilot: Jonathan J. (18937)
Aircraft: ROBINSON R44
(R44)
More flights by this aircraft type
Origin: KEAT Pangborn Meml
United States
Destination: KGEG Spokane Intl
United States
More flights between these airports :: More routes between these airports
Route: +EPH V120 GEG
File this flight plan on PilotEdge
Remarks: NO STAR NO DP
Altitude:
(Current/Filed)
7,000ft
Speed:
(Current/Filed)
100kts
Departed: 18-Apr-18 04:12 PM
Arrived: 18-Apr-18 05:14 PM
Distance/Time
Traveled:
109nm/1:02
Distance/Time
To Go:
Arrived

Flight Plot

Page will automatically refresh every two minutes.

Flight plan parsing failed; only flown route is shown


Map Options




Map Legend


Flown Route
Filed Route
Departure Airport
Arrival Airport
Navaid (VOR, NDB)
Fix

Horizontal Profiles

Position Reports

Time Latitude Longitude Heading Altitude Ground
Speed
18-Apr-18 16:05 47.403364 -120.210367 173 1243ft 0kts
18-Apr-18 16:06 47.403364 -120.210367 173 1243ft 0kts
18-Apr-18 16:07 47.403056 -120.210553 149 1281ft 22kts
18-Apr-18 16:08 47.393334 -120.195289 242 1257ft 11kts
18-Apr-18 16:09 47.393207 -120.195582 239 1251ft 0kts
18-Apr-18 16:10 47.393207 -120.195582 239 1251ft 0kts
18-Apr-18 16:11 47.392278 -120.197141 247 1300ft 59kts
18-Apr-18 16:12 47.412683 -120.220993 358 2016ft 118kts
18-Apr-18 16:13 47.416349 -120.187462 87 3141ft 93kts
18-Apr-18 16:14 47.415276 -120.154818 57 4484ft 48kts
18-Apr-18 16:15 47.417377 -120.124103 71 5676ft 64kts
18-Apr-18 16:16 47.415161 -120.099453 84 6946ft 60kts
18-Apr-18 16:17 47.411656 -120.066304 91 7225ft 103kts
18-Apr-18 16:18 47.406048 -120.027048 98 7253ft 120kts
18-Apr-18 16:19 47.404420 -119.978914 82 7323ft 111kts
18-Apr-18 16:20 47.404781 -119.934952 90 7500ft 96kts
18-Apr-18 16:21 47.398554 -119.898913 106 7291ft 84kts
18-Apr-18 16:22 47.390980 -119.864228 97 7302ft 87kts
18-Apr-18 16:23 47.385734 -119.824198 94 7175ft 106kts
18-Apr-18 16:24 47.381815 -119.778078 91 6706ft 117kts
18-Apr-18 16:25 47.382080 -119.724929 85 6081ft 146kts
18-Apr-18 16:26 47.384778 -119.668563 78 6546ft 101kts
18-Apr-18 16:27 47.387530 -119.623525 86 7290ft 90kts
18-Apr-18 16:28 47.381855 -119.594272 96 7296ft 92kts
18-Apr-18 16:29 47.380303 -119.553429 80 7246ft 118kts
18-Apr-18 16:30 47.380678 -119.510763 96 7153ft 98kts
18-Apr-18 16:31 47.375190 -119.469023 93 7143ft 113kts
18-Apr-18 16:32 47.370611 -119.422938 91 7176ft 113kts
18-Apr-18 16:33 47.367428 -119.376910 86 7285ft 112kts
18-Apr-18 16:34 47.376791 -119.334856 58 7249ft 110kts
18-Apr-18 16:35 47.388747 -119.291608 88 6923ft 122kts
18-Apr-18 16:36 47.388648 -119.246020 82 6988ft 107kts
18-Apr-18 16:37 47.390871 -119.203775 71 7177ft 108kts
18-Apr-18 16:38 47.392715 -119.158817 78 7214ft 109kts
18-Apr-18 16:39 47.395611 -119.114005 76 7221ft 109kts
18-Apr-18 16:40 47.399467 -119.069396 74 7195ft 110kts
18-Apr-18 16:41 47.402255 -119.022187 79 7154ft 117kts
18-Apr-18 16:42 47.408377 -118.975584 63 7193ft 116kts
18-Apr-18 16:43 47.418526 -118.930015 73 7171ft 117kts
18-Apr-18 16:44 47.424092 -118.882942 73 7242ft 118kts
18-Apr-18 16:45 47.430327 -118.834672 77 7179ft 119kts
18-Apr-18 16:46 47.434744 -118.786393 78 7149ft 118kts
18-Apr-18 16:47 47.438219 -118.738759 73 7183ft 119kts
18-Apr-18 16:48 47.447865 -118.691523 62 7173ft 121kts
18-Apr-18 16:49 47.462927 -118.646418 55 7140ft 122kts
18-Apr-18 16:50 47.467045 -118.599169 93 7148ft 119kts
18-Apr-18 16:51 47.464516 -118.548925 84 7176ft 123kts
18-Apr-18 16:52 47.468844 -118.499347 71 7157ft 125kts
18-Apr-18 16:53 47.477595 -118.451402 72 7137ft 127kts
18-Apr-18 16:54 47.489972 -118.399493 60 7251ft 132kts
18-Apr-18 16:55 47.504682 -118.352155 62 7573ft 128kts
18-Apr-18 16:56 47.520963 -118.305808 57 7087ft 122kts
18-Apr-18 16:57 47.535144 -118.259251 70 7033ft 133kts
18-Apr-18 16:58 47.544453 -118.206681 76 6979ft 134kts
18-Apr-18 16:59 47.550895 -118.152187 72 7101ft 133kts
18-Apr-18 17:00 47.555730 -118.097621 86 7220ft 131kts
18-Apr-18 17:01 47.557144 -118.042928 82 7121ft 131kts
18-Apr-18 17:02 47.556444 -117.989611 91 6799ft 117kts
18-Apr-18 17:03 47.554948 -117.945217 84 5776ft 102kts
18-Apr-18 17:04 47.555717 -117.905320 86 5029ft 87kts
18-Apr-18 17:05 47.556421 -117.867345 89 4425ft 118kts
18-Apr-18 17:06 47.560941 -117.814547 81 4627ft 130kts
18-Apr-18 17:07 47.559434 -117.758718 99 4404ft 142kts
18-Apr-18 17:08 47.563683 -117.703700 89 4369ft 135kts
18-Apr-18 17:09 47.565163 -117.647036 82 4407ft 137kts
18-Apr-18 17:10 47.583074 -117.601978 47 3639ft 131kts
18-Apr-18 17:11 47.602308 -117.562288 46 2794ft 94kts
18-Apr-18 17:12 47.612810 -117.546062 43 2409ft 41kts
18-Apr-18 17:13 47.622873 -117.537126 3 2377ft 0kts

Navigation Log

Ident Type
Flight plan parsing failed, navigation log unavailable